Time;durP1;ratioP1;P1;durP2;ratioP2;P2;SDS_P1;SDS_P2;PMS_P1;PMS_P2;Temp;Humidity;BMP_temperature;BMP_pressure;BME280_temperature;BME280_humidity;BME280_pressure;Samples;Min_cycle;Max_cycle;Signal;HPM_P1;HPM_P2
2022/05/06 00:02:21;;;;;;;9.85;4.53;;;;;;;8.49;46.26;101384.53;1817580;79;21003;-58
2022/05/06 00:04:52;;;;;;;11.78;4.55;;;;;;;8.49;46.21;101378.21;1817914;79;20972;-58
2022/05/06 00:07:22;;;;;;;9.35;4.47;;;;;;;8.48;46.03;101378.72;1818203;79;21007;-58
2022/05/06 00:09:51;;;;;;;8.73;4.37;;;;;;;8.46;45.96;101378.02;1817648;79;21031;-59
2022/05/06 00:12:20;;;;;;;9.65;4.50;;;;;;;8.43;45.80;101378.31;1817651;79;21007;-57
2022/05/06 00:14:53;;;;;;;9.05;4.80;;;;;;;8.41;45.86;101374.88;1817768;79;21039;-58
2022/05/06 00:17:24;;;;;;;9.45;4.17;;;;;;;8.39;46.13;101376.91;1817492;79;21027;-58
2022/05/06 00:19:53;;;;;;;10.08;4.25;;;;;;;8.36;46.31;101382.70;1817787;79;21023;-59
2022/05/06 00:22:22;;;;;;;11.20;4.35;;;;;;;8.34;46.40;101390.19;1818305;79;21087;-62
2022/05/06 00:24:52;;;;;;;10.35;4.28;;;;;;;8.32;46.40;101394.06;1817972;79;21007;-58
2022/05/06 00:27:21;;;;;;;11.20;4.35;;;;;;;8.32;46.37;101394.06;1817780;79;21007;-58
2022/05/06 00:29:52;;;;;;;11.00;4.47;;;;;;;8.31;46.48;101394.57;1817836;79;21034;-58
2022/05/06 00:32:22;;;;;;;11.30;4.67;;;;;;;8.30;46.56;101393.36;1817650;79;21019;-57
2022/05/06 00:34:53;;;;;;;8.80;4.22;;;;;;;8.24;46.57;101388.89;1817816;79;21023;-57
2022/05/06 00:37:22;;;;;;;10.43;4.80;;;;;;;8.20;46.80;101392.95;1817923;79;21071;-57
2022/05/06 00:39:51;;;;;;;7.22;3.58;;;;;;;8.20;46.75;101393.45;1817855;79;21011;-58
2022/05/06 00:42:21;;;;;;;8.58;4.05;;;;;;;8.19;46.87;101391.74;1817060;79;20980;-58
2022/05/06 00:44:51;;;;;;;8.13;3.62;;;;;;;8.16;46.91;101390.70;1811784;79;21427;-59
2022/05/06 00:47:20;;;;;;;9.28;4.00;;;;;;;8.14;46.86;101390.85;1811918;79;20995;-57
2022/05/06 00:49:49;;;;;;;8.38;4.45;;;;;;;8.09;46.88;101390.47;1811987;79;21043;-60
2022/05/06 00:52:18;;;;;;;8.43;4.08;;;;;;;8.08;46.83;101387.89;1812006;79;21447;-57
2022/05/06 00:54:47;;;;;;;7.00;3.87;;;;;;;8.06;46.88;101394.02;1811712;79;21087;-58
2022/05/06 00:57:17;;;;;;;8.73;4.10;;;;;;;8.01;47.18;101385.45;1812155;79;21502;-58
2022/05/06 01:02:36;;;;;;;7.12;3.83;;;;;;;7.96;47.34;101377.73;1812223;79;21008;-58
2022/05/06 01:05:09;;;;;;;7.28;3.95;;;;;;;7.93;47.29;101380.27;1812122;79;21012;-57
2022/05/06 01:07:38;;;;;;;9.40;4.12;;;;;;;7.90;47.38;101379.72;1812107;79;21003;-58
2022/05/06 01:10:09;;;;;;;9.05;4.25;;;;;;;7.82;47.53;101383.73;1811827;79;21454;-59
2022/05/06 01:12:38;;;;;;;8.13;4.08;;;;;;;7.76;47.80;101382.45;1812098;79;20980;-57
2022/05/06 01:15:26;;;;;;;10.88;3.92;;;;;;;7.71;47.98;101388.03;1811335;79;21051;-58
2022/05/06 01:18:12;;;;;;;6.97;3.72;;;;;;;7.64;48.22;101386.42;1809971;79;21007;-57
2022/05/06 01:20:48;;;;;;;9.48;4.50;;;;;;;7.60;48.40;101390.47;1811985;79;21087;-58
2022/05/06 01:23:17;;;;;;;7.70;3.95;;;;;;;7.61;48.36;101384.86;1812054;79;21007;-59
2022/05/06 01:25:47;;;;;;;13.88;3.87;;;;;;;7.64;48.25;101387.28;1812088;79;21066;-58
2022/05/06 01:28:16;;;;;;;7.95;4.05;;;;;;;7.69;48.08;101383.23;1811910;79;21015;-57
2022/05/06 01:30:47;;;;;;;8.35;3.85;;;;;;;7.67;48.26;101387.98;1781050;79;21762;-58
2022/05/06 01:33:21;;;;;;;11.28;4.03;;;;;;;7.60;48.47;101389.11;1812179;79;21103;-59
2022/05/06 01:35:56;;;;;;;7.92;4.00;;;;;;;7.59;48.73;101393.70;1812018;79;21035;-58
2022/05/06 01:38:47;;;;;;;6.65;3.67;;;;;;;7.59;48.78;101390.13;1812144;79;21043;-58
2022/05/06 01:41:24;;;;;;;7.95;3.58;;;;;;;7.60;48.78;101390.47;1811925;79;21043;-59
2022/05/06 01:44:01;;;;;;;7.33;3.75;;;;;;;7.58;48.96;101389.77;1814162;79;21027;-58
2022/05/06 01:46:31;;;;;;;7.42;3.55;;;;;;;7.56;49.11;101384.97;1817687;79;21019;-59
2022/05/06 01:49:02;;;;;;;7.30;3.90;;;;;;;7.50;49.37;101391.05;1788939;79;21739;-58
2022/05/06 01:51:32;;;;;;;7.75;4.00;;;;;;;7.48;49.56;101401.25;1817893;79;21004;-59
2022/05/06 01:54:04;;;;;;;7.20;3.87;;;;;;;7.45;49.71;101394.73;1817819;79;21050;-57
2022/05/06 01:56:35;;;;;;;7.85;3.70;;;;;;;7.43;49.83;101399.48;1817915;79;21100;-57
2022/05/06 01:59:04;;;;;;;8.40;3.95;;;;;;;7.40;49.96;101407.47;1817830;79;20975;-58
2022/05/06 02:01:34;;;;;;;9.70;4.28;;;;;;;7.38;50.03;101402.67;1817804;79;21012;-58
2022/05/06 02:06:54;;;;;;;9.33;4.58;;;;;;;7.37;49.82;101411.00;1817833;79;21034;-59
2022/05/06 02:09:24;;;;;;;7.78;3.70;;;;;;;7.34;50.08;101413.53;1817849;79;20999;-58
2022/05/06 02:11:56;;;;;;;7.10;3.75;;;;;;;7.27;50.38;101412.42;1817245;79;21008;-57
2022/05/06 02:14:27;;;;;;;8.28;3.50;;;;;;;7.20;50.71;101409.44;1816591;79;20987;-59
2022/05/06 02:17:15;;;;;;;9.35;3.70;;;;;;;7.16;50.94;101411.26;1818073;79;21031;-58
2022/05/06 02:19:49;;;;;;;8.60;3.70;;;;;;;7.07;51.13;101414.35;1793340;79;21011;-59
2022/05/06 02:22:20;;;;;;;6.75;3.50;;;;;;;7.06;51.08;101409.91;1815492;79;20999;-58
2022/05/06 02:25:09;;;;;;;9.35;3.95;;;;;;;7.05;51.11;101413.64;1753284;79;21035;-58
2022/05/06 02:27:42;;;;;;;6.60;3.65;;;;;;;7.00;51.28;101411.88;1816447;79;20992;-58
2022/05/06 02:33:15;;;;;;;6.08;3.30;;;;;;;6.94;51.47;101417.92;1816744;79;21000;-59
2022/05/06 02:35:46;;;;;;;8.48;3.22;;;;;;;6.92;51.55;101416.70;1817506;79;21560;-59
2022/05/06 02:38:19;;;;;;;7.12;3.35;;;;;;;6.91;51.60;101414.13;1816719;79;21019;-57
2022/05/06 02:40:49;;;;;;;9.30;3.60;;;;;;;6.91;51.63;101426.39;1817615;79;21432;-59
2022/05/06 02:43:18;;;;;;;7.95;3.33;;;;;;;6.90;51.66;101423.31;1817922;79;21011;-57
2022/05/06 02:45:49;;;;;;;6.62;3.50;;;;;;;6.85;51.76;101422.40;1817520;79;21019;-58
2022/05/06 02:48:20;;;;;;;8.33;3.10;;;;;;;6.82;51.83;101427.28;1817773;79;21015;-58
2022/05/06 02:50:50;;;;;;;7.35;3.42;;;;;;;6.79;51.91;101430.30;1817720;79;20999;-58
2022/05/06 02:53:23;;;;;;;7.85;3.52;;;;;;;6.76;51.95;101426.01;1817765;79;21059;-58
2022/05/06 02:55:52;;;;;;;10.10;4.25;;;;;;;6.74;51.89;101423.94;1817784;79;21039;-58
2022/05/06 02:58:22;;;;;;;9.83;3.85;;;;;;;6.74;51.94;101424.44;1817740;79;21011;-59
2022/05/06 03:00:51;;;;;;;7.67;3.47;;;;;;;6.72;51.92;101415.56;1817894;79;21051;-57
2022/05/06 03:03:20;;;;;;;8.35;3.12;;;;;;;6.66;51.93;101409.70;1788445;79;21086;-57
2022/05/06 03:05:50;;;;;;;5.80;3.40;;;;;;;6.64;51.99;101417.66;1817828;79;21039;-58
2022/05/06 03:08:21;;;;;;;6.35;3.80;;;;;;;6.63;52.05;101412.72;1817786;79;21038;-57
2022/05/06 03:10:50;;;;;;;7.53;3.72;;;;;;;6.67;52.17;101417.37;1817722;79;21008;-57
2022/05/06 03:13:19;;;;;;;9.55;4.08;;;;;;;6.68;52.36;101420.45;1818018;79;21042;-58
2022/05/06 03:15:49;;;;;;;9.68;4.42;;;;;;;6.70;52.43;101425.74;1721226;83;21023;-59
2022/05/06 03:18:21;;;;;;;12.98;5.37;;;;;;;6.72;52.51;101422.37;1721373;83;21030;-60
2022/05/06 03:20:52;;;;;;;12.95;5.62;;;;;;;6.74;52.59;101425.80;1721561;83;21055;-58
2022/05/06 03:23:21;;;;;;;12.35;6.00;;;;;;;6.75;52.69;101428.88;1721200;83;21070;-58
2022/05/06 03:25:50;;;;;;;11.90;6.00;;;;;;;6.74;52.64;101427.17;1721271;83;21027;-58
2022/05/06 03:28:20;;;;;;;12.88;6.60;;;;;;;6.76;52.63;101426.01;1721504;83;21455;-57
2022/05/06 03:30:52;;;;;;;14.40;6.40;;;;;;;6.80;52.58;101427.44;1721363;83;20999;-58
2022/05/06 03:33:24;;;;;;;20.80;7.60;;;;;;;6.90;52.56;101434.21;1745982;79;20987;-59
2022/05/06 03:35:54;;;;;;;17.07;7.17;;;;;;;6.92;52.52;101439.87;1817679;79;20971;-58
2022/05/06 03:38:24;;;;;;;12.43;6.00;;;;;;;6.98;52.62;101434.32;1817752;79;21011;-60
2022/05/06 03:40:55;;;;;;;19.77;7.17;;;;;;;7.06;52.11;101433.08;1817666;79;21027;-57
2022/05/06 03:43:24;;;;;;;11.48;5.92;;;;;;;7.14;51.85;101437.27;1786243;79;21502;-58
2022/05/06 03:45:54;;;;;;;14.23;6.20;;;;;;;7.22;52.03;101436.55;1804505;79;20999;-60
2022/05/06 03:48:27;;;;;;;25.02;6.92;;;;;;;7.27;52.01;101444.63;1804367;79;21016;-57
2022/05/06 03:53:43;;;;;;;17.37;6.50;;;;;;;7.44;51.54;101451.14;1804675;79;21019;-57
2022/05/06 03:56:12;;;;;;;17.15;6.62;;;;;;;7.53;51.15;101448.01;1804333;79;21445;-58
2022/05/06 03:58:44;;;;;;;14.95;6.42;;;;;;;7.66;50.86;101449.86;1804415;79;20980;-63
2022/05/06 04:01:19;;;;;;;14.33;6.25;;;;;;;7.81;50.43;101448.36;1804415;79;20996;-59
2022/05/06 04:03:47;;;;;;;14.15;5.80;;;;;;;7.97;49.66;101451.77;1804168;79;21315;-57
2022/05/06 04:06:17;;;;;;;13.10;5.90;;;;;;;8.11;49.18;101457.19;1804370;79;21416;-57
2022/05/06 04:08:48;;;;;;;17.00;5.22;;;;;;;8.23;48.36;101457.30;1804189;79;21490;-58
2022/05/06 04:11:19;;;;;;;12.88;5.17;;;;;;;8.36;47.26;101461.89;1804439;79;21000;-58
2022/05/06 04:13:48;;;;;;;13.03;4.97;;;;;;;8.48;46.87;101454.34;1777734;79;21048;-58
2022/05/06 04:16:17;;;;;;;9.55;4.55;;;;;;;8.62;46.02;101458.38;1804479;79;21082;-58
2022/05/06 04:18:47;;;;;;;9.23;4.30;;;;;;;8.71;45.35;101453.31;1804472;79;21059;-58
2022/05/06 04:24:05;;;;;;;9.45;4.03;;;;;;;8.92;44.35;101455.67;1804496;79;21004;-57
2022/05/06 04:26:34;;;;;;;9.40;4.00;;;;;;;9.03;43.94;101452.67;1804484;79;21059;-58
2022/05/06 04:29:04;;;;;;;8.35;3.42;;;;;;;9.14;43.79;101446.45;1804200;79;21039;-58
2022/05/06 04:31:35;;;;;;;8.85;3.27;;;;;;;9.26;43.55;101455.22;1804386;79;21055;-59
2022/05/06 04:34:07;;;;;;;10.28;3.67;;;;;;;9.35;43.35;101460.22;1803675;79;21008;-59
2022/05/06 04:36:39;;;;;;;11.65;3.70;;;;;;;9.42;43.34;101463.50;1804250;79;21474;-59
2022/05/06 04:39:09;;;;;;;13.78;4.55;;;;;;;9.49;43.27;101462.33;1804314;79;20992;-58
2022/05/06 04:41:47;;;;;;;10.03;3.90;;;;;;;9.56;43.35;101457.91;1804620;79;20988;-58
2022/05/06 04:44:19;;;;;;;8.95;3.52;;;;;;;9.62;43.36;101453.14;1804385;79;21016;-57
2022/05/06 04:46:48;;;;;;;7.60;3.27;;;;;;;9.69;43.22;101462.41;1777075;79;21051;-59
2022/05/06 04:49:18;;;;;;;6.75;3.02;;;;;;;9.72;43.29;101464.81;1804276;79;21044;-58
2022/05/06 04:51:47;;;;;;;8.93;3.25;;;;;;;9.79;43.29;101465.03;1804340;79;20996;-59
2022/05/06 04:54:15;;;;;;;7.72;3.50;;;;;;;9.84;43.31;101463.51;1777296;79;21044;-58
2022/05/06 04:56:44;;;;;;;6.70;3.75;;;;;;;9.90;43.23;101471.56;1777404;79;20984;-59
2022/05/06 04:59:15;;;;;;;14.60;3.80;;;;;;;9.97;43.21;101472.61;1803342;79;21056;-59
2022/05/06 05:01:46;;;;;;;9.18;3.70;;;;;;;10.07;43.07;101469.72;1804155;79;21054;-59
2022/05/06 05:04:16;;;;;;;9.98;4.00;;;;;;;10.15;42.84;101469.73;1804281;79;21004;-58
2022/05/06 05:06:46;;;;;;;8.40;3.60;;;;;;;10.25;42.85;101473.20;1804355;79;21459;-57
2022/05/06 05:09:16;;;;;;;13.93;3.52;;;;;;;10.33;42.82;101469.61;1804424;79;21214;-61
2022/05/06 05:11:47;;;;;;;8.18;3.00;;;;;;;10.42;42.68;101463.14;1778277;79;21140;-58
2022/05/06 05:14:19;;;;;;;10.15;3.67;;;;;;;10.51;42.45;101465.38;1804061;79;21475;-58
2022/05/06 05:16:50;;;;;;;12.80;5.42;;;;;;;10.60;42.32;101469.30;1804087;79;21436;-59
2022/05/06 05:19:20;;;;;;;9.13;4.08;;;;;;;10.70;42.32;101467.76;1778433;79;21055;-59
2022/05/06 05:21:51;;;;;;;11.15;4.15;;;;;;;10.83;42.13;101473.57;1804084;79;21012;-57
2022/05/06 05:24:21;;;;;;;10.48;4.12;;;;;;;11.01;42.01;101474.23;1804349;79;21011;-60
2022/05/06 05:26:50;;;;;;;11.85;5.05;;;;;;;11.24;41.65;101473.52;1804516;79;20996;-60
2022/05/06 05:29:21;;;;;;;14.28;6.03;;;;;;;11.42;41.31;101468.66;1804439;79;21091;-60
2022/05/06 05:31:52;;;;;;;19.85;7.25;;;;;;;11.54;40.98;101469.12;1804275;79;21043;-60
2022/05/06 05:34:21;;;;;;;14.98;7.20;;;;;;;11.63;40.83;101478.52;1804645;79;21091;-58
2022/05/06 05:36:51;;;;;;;45.08;12.18;;;;;;;11.69;40.67;101476.43;1804219;79;21028;-60
2022/05/06 05:39:20;;;;;;;25.55;11.57;;;;;;;11.73;40.45;101475.59;1804377;79;21028;-60
2022/05/06 05:41:51;;;;;;;26.45;10.98;;;;;;;11.75;40.36;101481.23;1804133;79;21008;-57
2022/05/06 05:49:57;;;;;;;21.33;9.28;;;;;;;11.77;40.05;101485.70;1804672;79;21236;-59
2022/05/06 05:52:28;;;;;;;21.85;11.03;;;;;;;11.75;40.34;101481.75;1804263;79;21059;-58
2022/05/06 05:54:57;;;;;;;20.77;10.70;;;;;;;11.76;40.41;101473.86;1804321;79;21008;-58
2022/05/06 05:57:26;;;;;;;30.57;11.97;;;;;;;11.77;40.41;101474.71;1804412;79;21063;-59
2022/05/06 05:59:55;;;;;;;24.50;11.03;;;;;;;11.79;40.38;101479.55;1804529;79;21103;-57
2022/05/06 06:02:27;;;;;;;20.50;9.73;;;;;;;11.78;40.39;101480.06;1804373;79;21044;-59
2022/05/06 06:04:56;;;;;;;25.50;10.23;;;;;;;11.79;40.45;101480.40;1804268;79;21051;-58
2022/05/06 06:07:26;;;;;;;22.32;9.23;;;;;;;11.84;40.52;101478.48;1804503;79;21455;-60
2022/05/06 06:09:57;;;;;;;22.98;8.08;;;;;;;11.87;40.32;101476.23;1804102;79;21008;-58
2022/05/06 06:12:27;;;;;;;15.40;7.92;;;;;;;11.88;40.26;101472.45;1804627;79;21015;-59
2022/05/06 06:14:57;;;;;;;13.65;7.65;;;;;;;11.90;40.32;101473.13;1804349;79;21035;-58
2022/05/06 06:17:28;;;;;;;18.35;7.78;;;;;;;11.96;40.14;101474.30;1804377;79;21011;-58
2022/05/06 06:20:02;;;;;;;13.58;7.30;;;;;;;12.04;40.26;101466.00;1804481;79;21043;-58
2022/05/06 06:22:33;;;;;;;14.68;7.87;;;;;;;12.17;40.23;101468.16;1804068;79;21000;-59
2022/05/06 06:25:07;;;;;;;15.43;7.05;;;;;;;12.48;40.10;101476.38;1804269;79;21036;-59
2022/05/06 06:27:39;;;;;;;18.87;7.80;;;;;;;12.88;38.96;101470.52;1804312;79;21027;-59
2022/05/06 06:30:11;;;;;;;18.98;7.72;;;;;;;13.36;38.44;101473.85;1802619;79;21016;-58
2022/05/06 06:32:43;;;;;;;14.05;7.12;;;;;;;13.90;37.83;101467.50;1803171;79;21424;-59
2022/05/06 06:35:13;;;;;;;12.88;6.97;;;;;;;14.47;36.07;101471.37;1804331;79;21043;-59
2022/05/06 06:37:46;;;;;;;12.80;6.28;;;;;;;14.89;35.73;101464.95;1804016;79;21039;-58
2022/05/06 06:40:18;;;;;;;13.10;5.83;;;;;;;15.34;34.58;101464.98;1804360;79;21012;-58
2022/05/06 06:42:48;;;;;;;12.13;5.28;;;;;;;15.73;34.27;101466.31;1804331;79;21090;-60
2022/05/06 06:45:30;;;;;;;14.20;5.87;;;;;;;16.30;33.31;101469.20;1800317;79;21051;-59
2022/05/06 06:47:59;;;;;;;11.45;6.28;;;;;;;16.69;32.56;101458.75;1804399;79;21015;-58
2022/05/06 06:50:45;;;;;;;16.00;6.53;;;;;;;17.02;32.05;101459.63;1802485;79;21051;-61
2022/05/06 06:53:20;;;;;;;12.85;6.50;;;;;;;17.35;30.74;101462.88;1803809;79;21059;-58
2022/05/06 06:55:50;;;;;;;13.50;6.72;;;;;;;17.60;30.12;101463.91;1804649;79;21008;-58
2022/05/06 06:58:18;;;;;;;17.17;7.20;;;;;;;17.81;29.94;101466.95;1804424;79;21023;-58
2022/05/06 07:00:47;;;;;;;14.80;7.60;;;;;;;18.05;29.49;101468.97;1804499;79;21456;-60
2022/05/06 07:03:18;;;;;;;14.90;7.53;;;;;;;18.32;29.26;101461.92;1804430;79;21478;-58
2022/05/06 07:14:12;;;;;;;14.80;6.85;;;;;;;19.14;26.24;101463.67;1804395;79;21035;-59
2022/05/06 07:16:41;;;;;;;13.08;6.00;;;;;;;19.19;26.68;101458.28;1804319;79;21043;-62
2022/05/06 07:19:10;;;;;;;15.00;5.20;;;;;;;19.44;26.10;101466.58;1804444;79;21039;-59
2022/05/06 07:21:40;;;;;;;11.35;4.60;;;;;;;19.62;25.68;101463.02;1804363;79;20980;-58
2022/05/06 07:24:10;;;;;;;7.17;3.55;;;;;;;19.86;24.98;101460.69;1804327;79;21055;-60
2022/05/06 07:26:40;;;;;;;7.80;3.50;;;;;;;20.09;23.91;101459.95;1804355;79;21489;-60
2022/05/06 07:29:09;;;;;;;5.72;2.60;;;;;;;20.40;23.47;101459.47;1804256;79;21047;-61
2022/05/06 07:31:40;;;;;;;5.70;2.25;;;;;;;20.63;22.68;101462.87;1804262;79;21111;-58
2022/05/06 07:34:10;;;;;;;9.60;2.27;;;;;;;20.76;21.13;101451.52;1804375;79;21464;-60
2022/05/06 07:36:42;;;;;;;5.08;2.35;;;;;;;20.69;21.44;101462.77;1804341;79;20976;-58
2022/05/06 07:39:15;;;;;;;7.75;2.37;;;;;;;20.69;21.50;101464.16;1804350;79;21012;-59
2022/05/06 07:41:44;;;;;;;4.40;2.05;;;;;;;20.80;21.82;101461.09;1804133;79;21059;-60
2022/05/06 07:44:13;;;;;;;3.30;1.85;;;;;;;20.95;20.80;101458.72;1775806;80;21001;-59
2022/05/06 07:46:43;;;;;;;5.17;1.72;;;;;;;21.16;20.09;101446.13;1785420;79;21086;-59
2022/05/06 07:49:14;;;;;;;6.58;1.90;;;;;;;21.25;19.38;101446.64;1788136;79;21043;-57
2022/05/06 07:51:43;;;;;;;5.25;1.70;;;;;;;21.33;19.18;101456.03;1788256;80;20976;-58
2022/05/06 07:54:13;;;;;;;5.00;1.80;;;;;;;21.46;19.26;101453.02;1788092;80;21000;-59
2022/05/06 07:56:42;;;;;;;6.25;1.57;;;;;;;21.60;19.04;101453.06;1789119;79;21016;-59
2022/05/06 07:59:11;;;;;;;5.30;1.62;;;;;;;21.69;19.19;101450.20;1783919;80;21048;-60
2022/05/06 08:04:35;;;;;;;2.90;1.55;;;;;;;21.69;19.26;101454.92;1726615;82;21055;-59
2022/05/06 08:07:06;;;;;;;4.40;1.70;;;;;;;21.80;18.13;101449.31;1730216;83;21031;-59
2022/05/06 08:09:35;;;;;;;4.25;1.50;;;;;;;21.79;18.17;101445.38;1740225;82;20992;-59
2022/05/06 08:12:06;;;;;;;3.70;1.50;;;;;;;21.75;17.84;101441.39;1741642;81;21170;-59
2022/05/06 08:14:36;;;;;;;4.60;1.42;;;;;;;21.80;17.77;101444.28;1746577;81;21060;-59
2022/05/06 08:17:05;;;;;;;3.55;1.60;;;;;;;21.92;17.00;101442.85;1745328;82;21015;-59
2022/05/06 08:19:35;;;;;;;3.45;1.40;;;;;;;21.91;17.54;101446.73;1757552;81;21526;-59
2022/05/06 08:22:05;;;;;;;6.45;1.77;;;;;;;21.88;17.23;101447.23;1776630;81;21635;-59
2022/05/06 08:24:35;;;;;;;4.50;1.60;;;;;;;21.69;16.78;101446.01;1776417;81;21028;-57
2022/05/06 08:27:05;;;;;;;5.10;1.67;;;;;;;21.49;17.48;101443.62;1776436;81;21027;-57
2022/05/06 08:29:35;;;;;;;6.83;1.80;;;;;;;21.63;17.61;101441.41;1747690;81;21077;-59
2022/05/06 08:32:05;;;;;;;3.60;1.80;;;;;;;21.88;17.59;101445.30;1753748;80;21051;-58
2022/05/06 08:34:35;;;;;;;6.70;2.02;;;;;;;22.04;17.43;101445.94;1753532;81;21059;-56
2022/05/06 08:37:05;;;;;;;3.37;1.62;;;;;;;21.98;18.16;101444.66;1753421;82;21067;-56
2022/05/06 08:39:36;;;;;;;3.15;1.67;;;;;;;21.92;18.37;101441.45;1753716;81;21300;-57
2022/05/06 08:42:07;;;;;;;5.03;1.70;;;;;;;22.00;18.19;101436.87;1753440;81;21008;-58
2022/05/06 08:53:07;;;;;;;3.05;1.92;;;;;;;22.28;18.54;101430.51;1745850;82;20992;-58
2022/05/06 08:55:36;;;;;;;4.78;1.95;;;;;;;22.29;18.62;101439.19;1747883;82;20988;-58
2022/05/06 08:58:08;;;;;;;5.83;2.20;;;;;;;22.18;18.41;101441.48;1753578;82;21059;-57
2022/05/06 09:01:08;;;;;;;5.55;2.52;;;;;;;21.83;18.46;101432.08;1753137;81;21024;-58
2022/05/06 09:03:39;;;;;;;4.28;2.33;;;;;;;21.30;19.20;101425.85;1719622;81;21078;-58
2022/05/06 09:06:21;;;;;;;7.40;2.20;;;;;;;21.11;19.43;101416.20;1795288;80;21034;-57
2022/05/06 09:08:51;;;;;;;4.35;2.22;;;;;;;20.99;19.48;101415.34;1794352;80;21026;-56
2022/05/06 09:14:20;;;;;;;5.12;1.92;;;;;;;20.84;19.84;101413.04;1795584;80;21510;-57
2022/05/06 09:16:50;;;;;;;4.12;2.00;;;;;;;20.61;20.02;101401.84;1795306;80;21482;-60
2022/05/06 09:19:28;;;;;;;4.37;1.65;;;;;;;20.47;19.99;101407.32;1775545;80;21007;-59
2022/05/06 09:22:09;;;;;;;4.77;2.00;;;;;;;20.32;20.20;101406.34;1746182;82;21353;-60
2022/05/06 09:24:41;;;;;;;6.17;1.72;;;;;;;20.17;20.50;101401.77;1745902;82;21041;-60
2022/05/06 09:27:14;;;;;;;10.00;2.20;;;;;;;20.10;20.38;101405.16;1745777;82;21022;-59
2022/05/06 09:29:48;;;;;;;4.17;1.87;;;;;;;19.93;20.48;101416.94;1745791;81;20999;-60
2022/05/06 09:32:25;;;;;;;6.55;2.10;;;;;;;19.73;20.47;101408.55;1745776;81;21443;-58
2022/05/06 09:35:02;;;;;;;;;;;;;;;19.53;21.03;101403.23;1659014;86;21567;-58
2022/05/06 09:37:38;;;;;;;17.30;3.22;;;;;;;19.47;21.24;101405.49;1631139;88;20278;-59
2022/05/06 09:40:15;;;;;;;5.90;2.12;;;;;;;19.39;21.39;101394.69;1690011;85;21055;-58
2022/05/06 09:42:46;;;;;;;5.25;2.00;;;;;;;19.39;21.51;101395.53;1690097;85;21142;-57
2022/05/06 09:45:15;;;;;;;3.45;2.00;;;;;;;19.42;21.62;101392.29;1689301;84;21058;-59
2022/05/06 09:47:45;;;;;;;7.33;1.70;;;;;;;19.46;21.65;101394.91;1637173;85;21055;-58
2022/05/06 09:50:14;;;;;;;9.08;2.45;;;;;;;19.44;21.27;101394.30;1664488;85;21091;-60
2022/05/06 09:52:45;;;;;;;6.87;2.00;;;;;;;19.38;21.65;101392.98;1664645;85;21511;-58
2022/05/06 09:55:14;;;;;;;3.52;1.60;;;;;;;19.38;21.71;101395.23;1636743;85;21270;-59
2022/05/06 09:57:43;;;;;;;9.13;2.42;;;;;;;19.42;22.05;101397.85;1664722;85;21051;-58
2022/05/06 10:00:13;;;;;;;7.65;1.90;;;;;;;19.47;21.81;101403.56;1773967;79;21078;-59
2022/05/06 10:02:42;;;;;;;3.72;1.72;;;;;;;19.48;21.41;101394.14;1822519;79;21035;-58
2022/05/06 10:05:12;;;;;;;6.75;2.30;;;;;;;19.36;21.86;101409.89;1810788;79;21381;-61
2022/05/06 10:07:47;;;;;;;4.35;1.92;;;;;;;19.27;21.60;101401.02;1814728;79;20999;-58
2022/05/06 10:10:20;;;;;;;4.58;2.50;;;;;;;19.23;21.76;101396.15;1717058;82;21031;-59
2022/05/06 10:12:56;;;;;;;5.90;2.00;;;;;;;19.23;21.90;101395.61;1814286;79;21085;-58
2022/05/06 10:15:29;;;;;;;4.80;1.90;;;;;;;19.20;21.82;101393.29;1814636;79;21082;-59
2022/05/06 10:18:01;;;;;;;5.92;2.22;;;;;;;19.18;22.32;101403.79;1745197;82;21078;-61
2022/05/06 10:20:46;;;;;;;3.75;1.75;;;;;;;19.14;22.00;101394.22;1786258;79;20980;-58
2022/05/06 10:23:12;;;;;;;4.92;2.30;;;;;;;19.08;22.00;101387.34;1781810;80;21055;-58
2022/05/06 10:25:48;;;;;;;6.75;2.02;;;;;;;19.07;22.08;101392.59;1782568;80;21027;-57
2022/05/06 10:34:29;;;;;;;8.80;2.15;;;;;;;18.93;22.61;101387.70;1782506;80;21049;-58
2022/05/06 10:37:01;;;;;;;6.28;2.25;;;;;;;18.86;22.60;101382.22;1782653;79;21052;-58
2022/05/06 10:39:36;;;;;;;4.97;2.05;;;;;;;18.84;22.57;101377.94;1782390;80;21028;-59
2022/05/06 10:42:17;;;;;;;11.38;4.72;;;;;;;18.79;22.59;101371.68;1782770;80;21444;-61
2022/05/06 10:44:50;;;;;;;5.72;1.87;;;;;;;18.73;22.85;101367.04;1782518;80;21416;-59
2022/05/06 10:47:40;;;;;;;2.42;1.70;;;;;;;18.79;22.86;101361.95;1786824;79;22042;-59
2022/05/06 10:50:15;;;;;;;3.85;1.80;;;;;;;18.85;23.08;101360.19;1788100;80;21012;-58
2022/05/06 10:52:44;;;;;;;5.92;1.80;;;;;;;18.91;23.05;101356.53;1788094;80;21002;-59
2022/05/06 10:55:15;;;;;;;5.65;1.75;;;;;;;18.92;23.03;101359.08;1788021;80;21020;-59
2022/05/06 10:58:02;;;;;;;4.75;1.98;;;;;;;18.97;23.00;101350.06;1736018;82;21075;-60
2022/05/06 11:00:37;;;;;;;2.70;1.65;;;;;;;18.97;22.98;101359.24;1736404;82;21492;-59
2022/05/06 11:03:03;;;;;;;6.53;2.20;;;;;;;19.00;22.43;101357.93;1736110;82;21460;-59
2022/05/06 11:05:32;;;;;;;4.47;2.20;;;;;;;18.98;22.58;101351.75;1728901;82;21087;-58
2022/05/06 11:08:02;;;;;;;5.47;2.05;;;;;;;19.00;22.55;101346.28;1667625;85;21124;-58
2022/05/06 11:10:33;;;;;;;8.90;2.10;;;;;;;19.01;22.32;101337.41;1666147;86;21495;-58
2022/05/06 11:13:09;;;;;;;4.87;2.05;;;;;;;19.08;22.51;101337.33;1730037;82;21491;-59
2022/05/06 11:15:39;;;;;;;4.00;2.37;;;;;;;19.14;22.53;101337.26;1757754;80;21437;-58
2022/05/06 11:18:11;;;;;;;7.10;2.50;;;;;;;19.13;22.90;101327.77;1718185;83;21522;-59
2022/05/06 11:20:41;;;;;;;3.27;1.90;;;;;;;19.14;22.82;101335.87;1788437;80;21436;-59
2022/05/06 11:23:14;;;;;;;4.25;1.90;;;;;;;19.19;23.06;101325.45;1787865;80;21146;-59
2022/05/06 11:25:46;;;;;;;3.15;1.90;;;;;;;19.17;22.50;101325.68;1788130;80;21075;-58
2022/05/06 11:28:24;;;;;;;4.50;2.30;;;;;;;19.10;22.51;101326.30;1788033;80;21043;-58
2022/05/06 11:30:53;;;;;;;5.97;1.95;;;;;;;19.05;22.92;101326.14;1788244;80;21051;-58
2022/05/06 11:33:28;;;;;;;4.40;1.90;;;;;;;19.02;22.86;101315.49;1787962;80;21067;-60
2022/05/06 11:36:03;;;;;;;4.72;1.98;;;;;;;18.96;22.93;101309.47;1788073;80;21086;-57
2022/05/06 11:38:39;;;;;;;4.90;1.77;;;;;;;18.89;22.81;101306.77;1788318;80;21071;-57
2022/05/06 11:41:10;;;;;;;5.55;2.00;;;;;;;18.78;22.92;101317.76;1787978;79;21475;-57
2022/05/06 11:43:40;;;;;;;4.47;1.90;;;;;;;18.69;22.95;101311.11;1787658;79;21039;-58
2022/05/06 11:49:09;;;;;;;4.12;2.60;;;;;;;18.75;23.01;101306.57;1787502;80;21048;-56
2022/05/06 11:51:44;;;;;;;6.62;2.35;;;;;;;18.72;22.96;101286.75;1787730;80;21078;-58
2022/05/06 11:54:16;;;;;;;8.80;2.30;;;;;;;18.76;22.91;101285.20;1787909;80;21028;-58
2022/05/06 11:56:45;;;;;;;3.52;2.00;;;;;;;18.83;22.92;101285.44;1787668;80;21047;-57
2022/05/06 11:59:14;;;;;;;3.12;1.80;;;;;;;18.91;22.87;101287.95;1787876;80;21102;-57
2022/05/06 12:01:43;;;;;;;8.98;4.60;;;;;;;18.93;22.62;101290.49;1770503;80;21055;-57
2022/05/06 12:04:12;;;;;;;4.55;1.75;;;;;;;18.91;22.75;101284.32;1801361;79;21003;-57
2022/05/06 12:06:50;;;;;;;6.97;1.98;;;;;;;18.90;22.69;101279.31;1750674;82;21089;-57
2022/05/06 12:09:21;;;;;;;4.50;2.10;;;;;;;18.87;22.81;101271.44;1781668;80;21082;-58
2022/05/06 12:12:07;;;;;;;4.58;2.00;;;;;;;18.90;22.81;101275.69;1750615;82;21020;-57
2022/05/06 12:14:38;;;;;;;4.47;2.00;;;;;;;18.96;22.94;101269.20;1781442;80;21522;-61
2022/05/06 12:17:12;;;;;;;3.67;1.77;;;;;;;18.96;22.24;101272.83;1750771;82;21039;-56
2022/05/06 12:19:46;;;;;;;4.33;1.92;;;;;;;18.85;22.36;101277.73;1764767;80;21087;-57
2022/05/06 12:22:25;;;;;;;4.78;2.20;;;;;;;18.75;22.25;101277.95;1750612;82;21032;-57
2022/05/06 12:24:56;;;;;;;6.65;2.50;;;;;;;18.61;22.39;101267.50;1750571;82;21436;-58
2022/05/06 12:27:27;;;;;;;13.15;3.80;;;;;;;18.50;22.59;101258.00;1750615;82;21091;-56
2022/05/06 12:29:57;;;;;;;8.28;2.62;;;;;;;18.50;22.75;101265.48;1750573;81;21513;-57
2022/05/06 12:32:29;;;;;;;3.95;2.10;;;;;;;18.58;23.17;101260.48;1750437;81;21295;-56
2022/05/06 12:35:12;;;;;;;2.70;1.77;;;;;;;18.69;22.87;101253.35;1750408;81;21311;-56
2022/05/06 12:37:56;;;;;;;2.98;1.62;;;;;;;18.73;22.66;101252.35;1750690;82;20976;-57
2022/05/06 12:40:32;;;;;;;6.47;2.08;;;;;;;18.71;22.69;101247.56;1750196;81;21028;-58